Time;durP1;ratioP1;P1;durP2;ratioP2;P2;SDS_P1;SDS_P2;PMS_P1;PMS_P2;Temp;Humidity;BMP_temperature;BMP_pressure;BME280_temperature;BME280_humidity;BME280_pressure;Samples;Min_cycle;Max_cycle;Signal;HPM_P1;HPM_P2
2023/05/22 00:02:17;;;;;;;6.00;3.23;;;;;;;18.19;40.29;100473.50;124463;1099;104329;-84
2023/05/22 00:04:45;;;;;;;8.53;3.53;;;;;;;18.17;39.90;100469.05;124197;1098;104281;-83
2023/05/22 00:07:14;;;;;;;8.07;3.30;;;;;;;18.14;40.28;100467.30;124495;1099;104367;-87
2023/05/22 00:09:43;;;;;;;5.13;2.97;;;;;;;18.08;40.11;100462.83;124793;1099;104197;-85
2023/05/22 00:12:11;;;;;;;9.70;3.30;;;;;;;18.02;40.85;100462.80;124936;1098;104341;-87
2023/05/22 00:14:40;;;;;;;9.67;3.27;;;;;;;17.98;40.34;100458.34;124021;1099;104459;-85
2023/05/22 00:17:09;;;;;;;6.70;3.10;;;;;;;17.97;40.34;100464.56;124343;1099;104248;-84
2023/05/22 00:19:37;;;;;;;8.73;3.33;;;;;;;17.93;40.88;100460.98;125054;1099;104273;-85
2023/05/22 00:22:06;;;;;;;8.00;3.33;;;;;;;17.87;40.83;100457.38;124933;1099;104322;-84
2023/05/22 00:24:35;;;;;;;7.63;3.10;;;;;;;17.84;40.90;100463.58;124305;1099;104274;-85
2023/05/22 00:27:04;;;;;;;8.60;3.15;;;;;;;17.83;40.99;100467.11;124516;1099;104335;-88
2023/05/22 00:29:32;;;;;;;6.83;3.10;;;;;;;17.75;41.15;100468.84;124640;1099;104320;-89
2023/05/22 00:32:01;;;;;;;8.30;3.30;;;;;;;17.67;41.25;100462.58;124158;1099;104258;-86
2023/05/22 00:34:29;;;;;;;6.60;3.10;;;;;;;17.58;41.04;100463.42;124469;1099;104261;-89
2023/05/22 00:36:58;;;;;;;7.60;3.20;;;;;;;17.50;41.42;100460.72;124659;1098;104254;-87
2023/05/22 00:39:26;;;;;;;8.50;3.33;;;;;;;17.42;41.22;100460.66;124391;1099;104319;-86
2023/05/22 00:41:55;;;;;;;7.25;2.60;;;;;;;17.38;41.67;100458.86;124671;1099;104724;-86
2023/05/22 00:44:23;;;;;;;7.43;3.00;;;;;;;17.35;41.75;100464.14;124611;1099;104184;-89
2023/05/22 00:46:52;;;;;;;8.07;3.00;;;;;;;17.29;41.70;100457.91;124470;1099;104248;-87
2023/05/22 00:49:21;;;;;;;6.97;3.13;;;;;;;17.27;41.58;100459.67;124218;1099;104246;-85
2023/05/22 00:51:50;;;;;;;8.73;3.30;;;;;;;17.27;42.05;100459.67;124290;1099;104840;-86
2023/05/22 00:54:18;;;;;;;5.33;3.10;;;;;;;17.24;41.63;100456.10;124446;1099;104323;-87
2023/05/22 00:56:49;;;;;;;6.83;3.23;;;;;;;17.21;41.83;100456.08;124723;1099;104268;-89
2023/05/22 00:59:18;;;;;;;5.00;3.15;;;;;;;17.17;41.84;100458.69;124402;1098;104274;-86
2023/05/22 01:01:47;;;;;;;6.07;3.07;;;;;;;17.14;42.29;100459.58;124364;1099;104368;-87
2023/05/22 01:04:17;;;;;;;6.17;3.17;;;;;;;17.14;42.40;100459.58;124396;1099;104406;-88
2023/05/22 01:06:46;;;;;;;8.23;3.30;;;;;;;17.10;42.31;100468.36;124578;1099;104274;-85
2023/05/22 01:09:15;;;;;;;5.30;3.20;;;;;;;17.10;42.05;100472.79;124091;1099;104364;-85
2023/05/22 01:11:50;;;;;;;9.03;3.90;;;;;;;17.07;41.94;100463.91;124247;1099;104283;-89
2023/05/22 01:14:43;;;;;;;9.60;4.70;;;;;;;17.04;42.36;100473.61;124165;1099;104307;-86
2023/05/22 01:17:23;;;;;;;13.43;5.17;;;;;;;17.01;42.95;100469.16;124023;1099;104553;-88
2023/05/22 01:20:06;;;;;;;12.13;4.90;;;;;;;16.93;43.00;100469.98;124589;1099;104318;-86
2023/05/22 01:23:07;;;;;;;7.70;4.40;;;;;;;16.86;43.00;100458.42;124157;1099;104287;-87
2023/05/22 01:26:02;;;;;;;9.87;4.17;;;;;;;16.79;43.45;100457.45;124652;1099;104294;-87
2023/05/22 01:29:08;;;;;;;9.73;3.97;;;;;;;16.74;43.37;100461.83;124564;1099;104328;-87
2023/05/22 01:31:39;;;;;;;7.10;3.70;;;;;;;16.67;43.01;100463.53;124824;1099;104374;-86
2023/05/22 01:34:10;;;;;;;8.13;3.50;;;;;;;16.65;43.58;100459.08;124390;1099;104187;-88
2023/05/22 01:36:40;;;;;;;8.47;3.50;;;;;;;16.59;43.00;100457.25;124628;1099;104268;-87
2023/05/22 01:39:09;;;;;;;6.70;3.40;;;;;;;16.56;43.19;100462.52;124515;1098;104277;-87
2023/05/22 01:41:39;;;;;;;6.40;3.47;;;;;;;16.55;43.76;100458.11;124718;1099;104269;-86
2023/05/22 01:44:08;;;;;;;9.30;3.60;;;;;;;16.53;44.06;100460.73;124656;1099;104425;-86
2023/05/22 01:46:36;;;;;;;9.13;3.50;;;;;;;16.53;43.99;100457.18;124607;1099;104325;-87
2023/05/22 01:49:07;;;;;;;12.90;3.33;;;;;;;16.50;43.91;100458.05;124153;1099;104290;-87
2023/05/22 01:51:46;;;;;;;6.15;3.50;;;;;;;16.49;43.69;100460.69;124617;1099;104171;-88
2023/05/22 01:54:22;;;;;;;4.77;3.20;;;;;;;16.45;44.37;100459.74;124831;1099;104307;-88
2023/05/22 01:56:56;;;;;;;8.00;3.13;;;;;;;16.45;44.20;100461.52;124817;1099;104179;-87
2023/05/22 01:59:32;;;;;;;6.80;3.25;;;;;;;16.43;44.03;100463.27;124573;1099;104325;-85
2023/05/22 02:02:06;;;;;;;8.47;3.40;;;;;;;16.37;44.42;100469.38;124863;1099;104235;-89
2023/05/22 02:04:38;;;;;;;10.08;3.60;;;;;;;16.31;44.63;100467.56;124768;1099;104162;-89
2023/05/22 02:07:13;;;;;;;12.37;3.40;;;;;;;16.27;44.83;100462.21;124816;1099;104309;-86
2023/05/22 02:09:45;;;;;;;8.75;3.55;;;;;;;16.27;44.75;100468.38;124587;1099;104252;-87
2023/05/22 02:12:14;;;;;;;8.27;3.40;;;;;;;16.24;44.70;100465.70;124863;1099;104341;-87
2023/05/22 02:14:44;;;;;;;8.03;4.00;;;;;;;16.23;44.86;100470.98;124718;1099;104865;-88
2023/05/22 02:17:12;;;;;;;6.80;3.50;;;;;;;16.21;44.30;100465.66;124269;1099;104217;-86
2023/05/22 02:19:41;;;;;;;9.23;3.40;;;;;;;16.17;45.07;100477.98;124757;1099;104261;-88
2023/05/22 02:22:12;;;;;;;8.40;3.70;;;;;;;16.13;44.65;100476.16;125150;1099;104297;-87
2023/05/22 02:24:43;;;;;;;7.37;3.47;;;;;;;16.10;45.33;100473.47;124745;1099;104804;-87
2023/05/22 02:27:12;;;;;;;8.90;3.60;;;;;;;16.04;44.63;100478.68;124646;1099;104280;-90
2023/05/22 02:29:40;;;;;;;8.27;3.60;;;;;;;16.02;44.74;100472.49;125710;1099;104240;-89
2023/05/22 02:32:09;;;;;;;9.13;3.80;;;;;;;15.98;44.77;100470.66;124760;1099;104245;-88
2023/05/22 02:34:38;;;;;;;7.73;3.47;;;;;;;15.94;44.98;100475.03;124807;1099;104377;-91
2023/05/22 02:37:06;;;;;;;9.30;4.05;;;;;;;15.91;45.54;100471.44;124968;1099;104235;-89
2023/05/22 02:39:35;;;;;;;12.17;3.83;;;;;;;15.91;44.95;100471.44;124817;1099;104351;-88
2023/05/22 02:42:04;;;;;;;9.13;3.83;;;;;;;15.91;45.62;100463.50;124719;1099;104312;-87
2023/05/22 02:44:32;;;;;;;9.20;4.10;;;;;;;15.89;46.09;100466.12;124255;1099;104235;-89
2023/05/22 02:47:01;;;;;;;8.00;3.63;;;;;;;15.89;45.42;100473.19;124300;1099;104329;-88
2023/05/22 02:49:29;;;;;;;7.93;3.80;;;;;;;15.89;45.56;100471.41;124656;1099;104363;-88
2023/05/22 02:51:58;;;;;;;11.40;3.90;;;;;;;15.88;45.51;100471.39;124984;1099;104354;-89
2023/05/22 02:54:36;;;;;;;10.03;4.10;;;;;;;15.88;45.93;100474.95;124233;1099;104380;-87
2023/05/22 02:57:05;;;;;;;10.17;4.40;;;;;;;15.88;45.51;100480.25;124743;1099;104271;-88
2023/05/22 02:59:35;;;;;;;7.93;3.70;;;;;;;15.89;45.63;100481.13;124621;1099;104162;-87
2023/05/22 03:02:04;;;;;;;10.27;4.10;;;;;;;15.90;46.62;100482.91;124751;1098;104335;-86
2023/05/22 03:04:37;;;;;;;8.70;3.90;;;;;;;15.88;46.09;100477.59;124882;1099;104265;-87
2023/05/22 03:07:06;;;;;;;8.93;3.93;;;;;;;15.87;46.45;100481.09;124763;1099;104254;-89
2023/05/22 03:09:34;;;;;;;13.30;3.93;;;;;;;15.87;46.12;100481.09;124926;1099;104305;-88
2023/05/22 03:12:04;;;;;;;9.97;4.20;;;;;;;15.90;46.83;100482.91;124414;1099;104272;-87
2023/05/22 03:14:32;;;;;;;9.53;4.33;;;;;;;15.93;46.41;100482.95;125454;1099;104124;-87
2023/05/22 03:17:01;;;;;;;9.70;4.20;;;;;;;15.94;46.98;100476.77;126507;1099;102109;-88
2023/05/22 03:19:29;;;;;;;9.80;3.97;;;;;;;15.97;46.16;100479.45;126300;1099;101760;-89
2023/05/22 03:21:58;;;;;;;11.70;4.13;;;;;;;16.03;46.84;100474.25;127161;1098;104267;-89
2023/05/22 03:24:26;;;;;;;18.40;4.87;;;;;;;16.07;47.04;100476.08;126699;1099;102178;-89
2023/05/22 03:26:55;;;;;;;12.20;4.83;;;;;;;16.11;46.80;100477.91;126633;1099;104220;-85
2023/05/22 03:29:35;;;;;;;11.90;4.43;;;;;;;16.11;46.99;100483.20;126753;1099;102069;-88
2023/05/22 03:32:04;;;;;;;13.07;4.20;;;;;;;16.07;46.41;100475.20;125706;1099;104310;-89
2023/05/22 03:34:33;;;;;;;10.40;4.30;;;;;;;16.04;46.39;100465.45;126490;1098;104143;-88
2023/05/22 03:37:02;;;;;;;13.83;4.50;;;;;;;16.01;47.01;100469.83;126097;1099;101833;-82
2023/05/22 03:39:30;;;;;;;15.53;5.30;;;;;;;15.99;47.52;100465.39;125257;1099;104245;-87
2023/05/22 03:42:02;;;;;;;12.77;5.10;;;;;;;16.00;46.70;100466.27;124603;1099;104708;-85
2023/05/22 03:44:31;;;;;;;14.90;4.80;;;;;;;15.99;47.07;100467.16;124214;1099;104361;-83
2023/05/22 03:47:00;;;;;;;19.33;5.27;;;;;;;16.02;47.26;100461.91;124807;1099;104325;-83
2023/05/22 03:49:28;;;;;;;15.23;4.87;;;;;;;16.04;47.56;100464.57;124364;1099;104256;-83
2023/05/22 03:51:57;;;;;;;12.93;4.97;;;;;;;16.09;47.58;100463.73;124639;1099;104245;-83
2023/05/22 03:54:25;;;;;;;13.40;4.53;;;;;;;16.16;47.72;100470.90;124640;1099;104341;-81
2023/05/22 03:56:54;;;;;;;15.47;5.30;;;;;;;16.20;47.22;100465.64;124759;1099;102144;-85
2023/05/22 03:59:23;;;;;;;11.47;4.50;;;;;;;16.25;47.06;100462.19;124804;1099;104250;-86
2023/05/22 04:01:51;;;;;;;10.55;4.60;;;;;;;16.31;47.76;100464.00;124532;1099;104239;-83
2023/05/22 04:04:20;;;;;;;17.43;4.97;;;;;;;16.34;47.98;100464.04;124281;1099;104273;-85
2023/05/22 04:06:50;;;;;;;16.50;5.10;;;;;;;16.33;48.00;100460.52;124489;1099;104214;-83
2023/05/22 04:09:19;;;;;;;13.37;5.07;;;;;;;16.35;47.51;100456.11;124055;1099;104194;-83
2023/05/22 04:11:48;;;;;;;12.17;4.80;;;;;;;16.37;47.97;100453.48;124376;1099;104271;-82
2023/05/22 04:14:17;;;;;;;14.53;4.80;;;;;;;16.42;47.95;100457.06;123975;1099;104229;-83
2023/05/22 04:16:47;;;;;;;12.27;5.37;;;;;;;16.46;47.63;100450.94;124602;1099;104350;-84
2023/05/22 04:19:16;;;;;;;15.75;4.90;;;;;;;16.48;48.24;100454.48;124547;1099;104265;-83
2023/05/22 04:21:45;;;;;;;12.90;5.20;;;;;;;16.53;47.80;100452.80;124597;1099;104258;-86
2023/05/22 04:24:13;;;;;;;13.13;4.97;;;;;;;16.58;48.26;100449.28;124524;1099;104263;-83
2023/05/22 04:26:43;;;;;;;12.60;5.00;;;;;;;16.65;47.83;100454.66;125068;1099;104320;-82
2023/05/22 04:29:15;;;;;;;11.47;4.50;;;;;;;16.69;47.81;100459.12;124994;1099;104238;-83
2023/05/22 04:31:43;;;;;;;12.07;5.00;;;;;;;16.73;48.34;100454.73;124094;1099;104162;-86
2023/05/22 04:34:17;;;;;;;15.07;4.77;;;;;;;16.75;48.28;100460.05;124559;1099;104304;-84
2023/05/22 04:36:46;;;;;;;20.07;5.10;;;;;;;16.76;48.41;100465.36;124056;1099;104239;-84
2023/05/22 04:39:15;;;;;;;13.50;4.50;;;;;;;16.82;48.34;100468.08;124599;1099;104213;-85
2023/05/22 04:41:44;;;;;;;11.20;4.73;;;;;;;16.85;48.02;100462.80;125283;1099;104299;-82
2023/05/22 04:44:14;;;;;;;17.87;4.67;;;;;;;16.88;48.13;100468.17;127078;1099;101399;-83
2023/05/22 04:46:43;;;;;;;11.10;4.80;;;;;;;16.93;48.51;100460.27;124941;1099;104338;-82
2023/05/22 04:49:12;;;;;;;14.47;5.10;;;;;;;16.98;48.48;100471.78;124845;1099;104242;-81
2023/05/22 04:54:33;;;;;;;12.67;4.60;;;;;;;17.09;48.12;100468.35;124778;1099;104329;-82
2023/05/22 04:57:03;;;;;;;13.53;5.30;;;;;;;17.11;48.16;100472.80;125467;1099;104213;-85
2023/05/22 04:59:36;;;;;;;13.47;5.33;;;;;;;17.14;47.95;100469.27;124740;1099;104267;-83
2023/05/22 05:02:05;;;;;;;13.77;4.67;;;;;;;17.19;48.21;100467.56;124901;1099;104236;-81
2023/05/22 05:04:34;;;;;;;11.35;4.40;;;;;;;17.25;48.25;100467.62;124757;1099;104306;-79
2023/05/22 05:07:04;;;;;;;14.90;4.93;;;;;;;17.32;48.32;100477.37;124989;1099;104358;-80
2023/05/22 05:09:33;;;;;;;12.20;5.13;;;;;;;17.33;48.00;100468.55;124797;1099;104158;-80
2023/05/22 05:12:03;;;;;;;11.50;4.67;;;;;;;17.37;48.14;100472.11;124634;1099;104233;-80
2023/05/22 05:14:32;;;;;;;13.77;5.20;;;;;;;17.42;48.18;100465.06;124537;1099;104277;-80
2023/05/22 05:17:01;;;;;;;16.20;4.80;;;;;;;17.47;48.19;100463.35;124786;1099;104178;-80
2023/05/22 05:19:30;;;;;;;14.20;4.80;;;;;;;17.53;48.44;100463.39;124963;1099;104328;-79
2023/05/22 05:21:58;;;;;;;12.07;4.30;;;;;;;17.63;48.15;100466.98;125018;1099;102010;-79
2023/05/22 05:24:28;;;;;;;10.80;4.67;;;;;;;17.71;48.11;100467.03;125150;1099;104293;-81
2023/05/22 05:26:57;;;;;;;11.65;4.60;;;;;;;17.82;48.31;100464.44;124784;1099;102684;-81
2023/05/22 05:29:26;;;;;;;11.20;4.60;;;;;;;17.90;48.03;100466.30;125034;1099;103793;-79
2023/05/22 05:32:01;;;;;;;10.40;4.90;;;;;;;17.98;48.39;100465.44;124787;1099;104294;-81
2023/05/22 05:34:38;;;;;;;14.70;5.00;;;;;;;18.06;47.78;100469.00;125160;1099;104236;-79
2023/05/22 05:37:16;;;;;;;11.40;4.67;;;;;;;18.14;48.12;100467.30;125102;1099;104214;-84
2023/05/22 05:39:45;;;;;;;11.63;5.00;;;;;;;18.24;48.24;100470.86;125297;1099;104341;-83
2023/05/22 05:42:16;;;;;;;8.53;4.57;;;;;;;18.32;48.20;100466.45;124819;1099;102693;-82
2023/05/22 05:44:45;;;;;;;12.77;4.77;;;;;;;18.38;47.72;100470.91;124600;1099;104306;-79
2023/05/22 05:47:16;;;;;;;12.20;4.90;;;;;;;18.47;48.37;100465.62;125216;1099;102360;-79
2023/05/22 05:49:47;;;;;;;11.60;4.70;;;;;;;18.53;47.99;100462.98;124834;1099;104236;-80
2023/05/22 05:52:18;;;;;;;10.67;4.40;;;;;;;18.59;47.89;100464.75;124957;1099;102337;-79
2023/05/22 05:54:51;;;;;;;12.03;5.30;;;;;;;18.69;47.81;100467.44;125441;1099;102525;-79
2023/05/22 05:57:33;;;;;;;12.90;5.40;;;;;;;18.73;47.70;100462.12;125408;1099;102388;-81
2023/05/22 06:00:08;;;;;;;13.10;5.30;;;;;;;18.74;47.61;100466.56;124946;1099;104217;-79
2023/05/22 06:02:47;;;;;;;14.67;5.07;;;;;;;18.78;47.66;100457.73;125993;1098;104133;-81
2023/05/22 06:05:36;;;;;;;11.43;4.80;;;;;;;18.85;47.63;100456.86;125702;1099;104191;-83
2023/05/22 06:08:15;;;;;;;13.00;4.43;;;;;;;18.92;47.71;100463.97;125704;1099;102073;-80
2023/05/22 06:10:47;;;;;;;11.57;4.50;;;;;;;18.99;48.00;100456.88;124948;1099;104178;-81
2023/05/22 06:13:43;;;;;;;10.33;4.37;;;;;;;19.08;47.47;100448.02;124825;1099;104194;-80
2023/05/22 06:16:19;;;;;;;11.33;4.80;;;;;;;19.18;48.14;100448.02;124951;1102;104264;-78
2023/05/22 06:18:51;;;;;;;11.27;4.87;;;;;;;19.20;48.25;100438.27;124992;1099;104339;-79
2023/05/22 06:21:25;;;;;;;8.67;4.40;;;;;;;19.25;47.58;100442.70;125091;1099;104271;-81
2023/05/22 06:24:18;;;;;;;13.80;4.97;;;;;;;19.28;47.99;100435.59;126051;1099;102825;-81
2023/05/22 06:26:49;;;;;;;14.93;5.37;;;;;;;19.33;47.46;100440.91;125371;1099;103263;-78
2023/05/22 06:29:22;;;;;;;12.93;4.83;;;;;;;19.38;47.95;100441.78;124700;1099;104139;-83
2023/05/22 06:32:20;;;;;;;12.18;4.72;;;;;;;19.45;47.62;100440.89;125821;1099;104171;-80
2023/05/22 06:35:05;;;;;;;;;;;;;;;;;;;;;
2023/05/22 06:37:36;;;;;;;16.67;5.17;;;;;;;19.61;48.11;100438.20;124909;1099;104211;-78
2023/05/22 06:40:21;;;;;;;12.07;4.70;;;;;;;19.73;48.20;100439.05;125261;1099;104217;-84
2023/05/22 06:43:27;;;;;;;;;;;;;;;;;;;;;
2023/05/22 06:46:08;;;;;;;11.30;4.83;;;;;;;20.03;48.29;100436.33;125075;1099;104265;-78
2023/05/22 06:48:45;;;;;;;13.43;5.10;;;;;;;20.16;47.44;100437.15;124747;1099;104411;-80
2023/05/22 06:51:29;;;;;;;9.77;4.90;;;;;;;20.31;48.04;100438.86;125197;1099;104964;-81
2023/05/22 06:54:09;;;;;;;12.40;4.83;;;;;;;20.51;47.26;100439.63;124706;1102;102076;-80
2023/05/22 06:56:53;;;;;;;11.67;5.43;;;;;;;20.74;47.88;100433.27;125178;1102;102232;-80
2023/05/22 06:59:28;;;;;;;10.80;4.60;;;;;;;20.90;47.79;100436.73;125666;1099;104271;-82
2023/05/22 07:02:19;;;;;;;12.33;4.80;;;;;;;21.08;47.88;100431.22;126835;1099;101936;-79
2023/05/22 07:07:59;;;;;;;13.70;4.97;;;;;;;21.49;47.52;100427.33;125396;1099;102005;-82
2023/05/22 07:13:30;;;;;;;10.63;5.23;;;;;;;21.89;45.72;100429.55;126094;1099;104271;-80
2023/05/22 07:16:03;;;;;;;9.30;5.05;;;;;;;22.05;45.97;100430.24;125451;1099;104163;-81
2023/05/22 07:18:44;;;;;;;10.93;5.20;;;;;;;22.21;45.72;100425.58;126192;1099;104182;-80
2023/05/22 07:21:19;;;;;;;10.10;4.90;;;;;;;22.38;45.73;100427.17;125716;1099;104271;-80
2023/05/22 07:24:00;;;;;;;11.03;4.92;;;;;;;22.39;45.45;100412.88;125024;1099;103455;-82
2023/05/22 07:26:30;;;;;;;11.27;5.27;;;;;;;22.65;45.46;100422.33;125394;1099;104265;-77
2023/05/22 07:32:09;;;;;;;11.03;4.80;;;;;;;22.96;45.49;100428.94;125071;1099;104258;-78
2023/05/22 07:34:41;;;;;;;10.70;4.80;;;;;;;23.15;44.90;100424.21;124855;1099;103079;-78
2023/05/22 07:37:19;;;;;;;13.07;4.90;;;;;;;23.26;44.32;100428.47;124797;1099;102724;-78
2023/05/22 07:39:52;;;;;;;11.10;5.17;;;;;;;23.43;44.30;100418.33;124958;1102;103591;-79
2023/05/22 07:42:24;;;;;;;10.80;4.83;;;;;;;23.61;44.02;100426.95;124878;1099;104329;-81
2023/05/22 07:45:02;;;;;;;14.33;5.20;;;;;;;23.74;43.07;100416.87;125488;1099;102263;-78
2023/05/22 07:47:34;;;;;;;9.63;4.57;;;;;;;23.79;43.44;100413.17;125455;1098;104190;-82
2023/05/22 07:50:09;;;;;;;8.75;4.20;;;;;;;23.80;43.43;100414.94;125475;1099;104210;-80
2023/05/22 07:52:39;;;;;;;16.70;4.83;;;;;;;23.94;43.25;100409.34;124949;1102;103565;-80
2023/05/22 07:55:10;;;;;;;11.23;4.50;;;;;;;24.06;43.02;100405.52;124886;1099;104316;-80
2023/05/22 07:57:42;;;;;;;9.57;4.70;;;;;;;24.26;42.19;100410.42;124707;1099;104287;-77
2023/05/22 08:00:24;;;;;;;9.23;4.97;;;;;;;24.37;42.15;100410.18;124470;1099;104271;-79
2023/05/22 08:03:00;;;;;;;12.80;4.30;;;;;;;24.44;42.39;100400.22;125343;1099;102383;-79
2023/05/22 08:05:30;;;;;;;8.27;4.13;;;;;;;24.49;42.13;100400.98;125061;1099;104236;-82
2023/05/22 08:07:59;;;;;;;7.87;4.17;;;;;;;24.67;41.60;100407.77;124705;1099;104178;-78
2023/05/22 08:10:30;;;;;;;11.77;4.70;;;;;;;24.80;41.25;100394.92;125249;1099;104172;-81
2023/05/22 08:13:04;;;;;;;11.40;4.50;;;;;;;24.89;40.80;100397.38;125146;1099;104172;-79
2023/05/22 08:15:37;;;;;;;12.25;4.50;;;;;;;24.95;40.69;100394.53;124616;1099;104156;-77
2023/05/22 08:18:07;;;;;;;8.07;4.43;;;;;;;25.05;40.54;100400.55;124597;1099;104303;-79
2023/05/22 08:20:38;;;;;;;11.67;4.63;;;;;;;24.89;39.98;100392.01;125000;1099;102370;-81
2023/05/22 08:23:07;;;;;;;9.30;4.43;;;;;;;24.84;39.99;100391.22;124912;1099;104195;-76
2023/05/22 08:25:48;;;;;;;12.10;4.70;;;;;;;24.80;39.44;100393.11;124978;1099;102453;-79
2023/05/22 08:28:23;;;;;;;;;;;;;;;24.92;38.77;100389.25;125363;1099;104248;-83
2023/05/22 08:31:02;;;;;;;12.67;4.50;;;;;;;25.07;39.19;100388.86;125384;1099;103478;-77
2023/05/22 08:33:34;;;;;;;8.93;4.10;;;;;;;25.27;38.82;100387.42;125041;1099;104064;-81
2023/05/22 08:36:07;;;;;;;10.63;4.27;;;;;;;25.28;38.28;100379.36;125204;1099;104214;-85
2023/05/22 08:38:53;;;;;;;9.30;4.20;;;;;;;25.31;38.00;100381.09;125476;1099;104270;-80
2023/05/22 08:41:50;;;;;;;9.70;4.70;;;;;;;25.42;38.19;100378.98;124874;1099;103248;-80
2023/05/22 08:44:36;;;;;;;6.70;3.60;;;;;;;25.51;37.77;100379.64;125696;1099;104302;-83
2023/05/22 08:47:12;;;;;;;10.50;3.97;;;;;;;25.62;37.82;100374.88;125103;1099;102985;-80
2023/05/22 08:49:54;;;;;;;7.53;4.10;;;;;;;25.77;37.35;100379.81;125283;1099;104181;-83
2023/05/22 08:52:35;;;;;;;7.40;3.63;;;;;;;25.69;36.78;100376.44;125608;1099;102253;-82
2023/05/22 08:55:35;;;;;;;;;;;;;;;;;;;;;
2023/05/22 08:58:20;;;;;;;7.73;4.27;;;;;;;25.59;35.74;100372.27;125350;1099;104313;-79
2023/05/22 09:01:04;;;;;;;;;;;;;;;;;;;;;
2023/05/22 09:03:39;;;;;;;7.67;3.70;;;;;;;25.73;35.92;100375.44;125252;1099;101990;-82
2023/05/22 09:06:18;;;;;;;7.37;3.60;;;;;;;25.82;35.92;100368.89;125250;1099;104092;-79
2023/05/22 09:08:54;;;;;;;7.07;3.33;;;;;;;25.88;35.46;100360.64;125243;1099;104181;-82
2023/05/22 09:11:25;;;;;;;6.17;3.40;;;;;;;25.90;34.70;100376.73;126088;1099;103396;-79
2023/05/22 09:14:24;;;;;;;6.87;3.30;;;;;;;25.84;34.21;100364.38;124596;1101;104401;-78
2023/05/22 09:17:06;;;;;;;6.43;3.23;;;;;;;25.88;34.02;100373.22;125149;1099;104405;-84
2023/05/22 09:19:36;;;;;;;5.57;3.50;;;;;;;25.65;33.66;100358.66;124698;1099;104259;-78
2023/05/22 09:22:05;;;;;;;9.67;3.63;;;;;;;25.52;33.81;100362.61;125244;1099;102900;-79
2023/05/22 09:24:41;;;;;;;8.30;3.80;;;;;;;25.62;34.01;100359.63;125139;1099;103363;-81
2023/05/22 09:27:14;;;;;;;5.63;3.57;;;;;;;25.80;34.40;100362.69;125087;1099;103327;-76
2023/05/22 09:29:56;;;;;;;9.27;4.00;;;;;;;25.94;34.59;100357.77;125050;1099;102217;-79
2023/05/22 09:32:30;;;;;;;9.80;3.80;;;;;;;26.13;33.76;100354.56;124786;1099;102303;-79
2023/05/22 09:35:10;;;;;;;8.17;3.60;;;;;;;26.14;33.57;100354.52;124829;1102;104262;-79
2023/05/22 09:37:43;;;;;;;8.53;3.17;;;;;;;26.22;33.64;100346.20;125561;1099;103240;-81
2023/05/22 09:40:27;;;;;;;10.77;4.00;;;;;;;26.29;33.63;100346.91;125244;1099;102943;-81
2023/05/22 09:43:22;;;;;;;7.27;3.60;;;;;;;26.32;33.52;100345.00;125399;1099;102969;-81
2023/05/22 09:46:39;;;;;;;;;;;;;;;;;;;;;
2023/05/22 09:49:16;;;;;;;12.17;4.23;;;;;;;26.54;33.32;100337.10;126361;1098;104159;-81
2023/05/22 09:52:13;;;;;;;11.30;3.50;;;;;;;26.63;33.28;100324.27;125326;1099;118783;-81
2023/05/22 09:55:05;;;;;;;8.43;3.70;;;;;;;26.68;33.14;100333.98;125325;1099;104361;-85
2023/05/22 09:58:08;;;;;;;6.53;3.30;;;;;;;26.52;33.09;100330.91;125931;1099;102527;-85
2023/05/22 10:00:57;;;;;;;6.83;3.53;;;;;;;26.48;33.05;100320.29;125833;1099;102926;-81
2023/05/22 10:03:38;;;;;;;9.33;3.97;;;;;;;26.51;33.00;100322.88;126163;1098;102348;-80
2023/05/22 10:06:12;;;;;;;7.73;3.83;;;;;;;26.45;33.17;100320.39;124822;1099;104226;-78
2023/05/22 10:08:55;;;;;;;7.93;4.00;;;;;;;26.25;32.68;100327.28;124800;1099;102830;-81
2023/05/22 10:11:32;;;;;;;7.43;3.50;;;;;;;26.14;32.91;100324.06;125179;1099;104159;-80
2023/05/22 10:14:07;;;;;;;10.18;4.10;;;;;;;26.02;33.16;100322.63;120747;1099;10000914;-79
2023/05/22 10:16:37;;;;;;;7.13;4.13;;;;;;;26.12;33.29;100323.25;125188;1099;102623;-80
2023/05/22 10:19:10;;;;;;;7.70;4.10;;;;;;;26.23;33.17;100315.70;125192;1099;104277;-80
2023/05/22 10:21:42;;;;;;;7.73;4.17;;;;;;;26.27;32.86;100303.94;125334;1099;104158;-80
2023/05/22 10:24:18;;;;;;;7.45;4.05;;;;;;;26.33;33.24;100301.05;125110;1099;104203;-84
2023/05/22 10:27:17;;;;;;;11.50;4.43;;;;;;;26.51;32.61;100302.22;125736;1099;103725;-80
2023/05/22 10:30:18;;;;;;;8.63;4.07;;;;;;;26.62;32.63;100301.00;125435;1097;104153;-81
2023/05/22 10:33:12;;;;;;;9.40;4.10;;;;;;;26.70;32.95;100290.88;124907;1099;118629;-81
2023/05/22 10:35:47;;;;;;;6.07;3.87;;;;;;;26.80;32.27;100297.70;125256;1099;102225;-78
2023/05/22 10:38:46;;;;;;;9.53;4.17;;;;;;;26.90;32.62;100293.74;125170;1099;102284;-81
2023/05/22 10:41:16;;;;;;;9.33;4.20;;;;;;;26.93;32.56;100284.69;125179;1099;102854;-78
2023/05/22 10:43:49;;;;;;;7.97;3.73;;;;;;;26.94;32.59;100290.94;125308;1099;104258;-75
2023/05/22 10:46:31;;;;;;;9.95;3.90;;;;;;;26.76;32.52;100285.28;124701;1099;104252;-79
2023/05/22 10:49:24;;;;;;;10.63;4.23;;;;;;;26.82;33.15;100276.12;125272;1099;102363;-76
2023/05/22 10:52:00;;;;;;;10.23;4.20;;;;;;;27.04;32.83;100269.02;125011;1099;104204;-81
2023/05/22 10:54:47;;;;;;;9.18;4.05;;;;;;;27.15;32.47;100263.24;116029;1099;10002290;-75
2023/05/22 10:57:17;;;;;;;9.37;4.10;;;;;;;27.03;33.22;100267.25;125083;1099;104159;-82
2023/05/22 10:59:48;;;;;;;9.10;4.00;;;;;;;26.79;32.78;100271.72;125537;1099;102187;-81
2023/05/22 11:02:29;;;;;;;8.50;4.27;;;;;;;26.55;33.32;100268.91;124888;1099;104239;-80
2023/05/22 11:05:36;;;;;;;6.10;3.93;;;;;;;26.52;33.42;100266.33;124937;1099;104776;-77
2023/05/22 11:08:38;;;;;;;10.10;4.10;;;;;;;26.50;33.43;100256.55;125031;1099;104415;-81
2023/05/22 11:11:37;;;;;;;8.37;4.17;;;;;;;26.43;34.15;100272.02;124925;1099;104271;-79
2023/05/22 11:14:33;;;;;;;15.33;4.30;;;;;;;26.13;34.40;100274.80;124450;1102;104153;-76
2023/05/22 11:17:19;;;;;;;8.47;4.40;;;;;;;25.93;34.82;100279.88;125037;1099;104181;-76
2023/05/22 11:20:05;;;;;;;10.83;4.37;;;;;;;25.61;36.08;100293.38;125251;1099;104252;-81
2023/05/22 11:22:44;;;;;;;9.00;4.67;;;;;;;25.51;36.10;100291.00;126240;1099;102204;-78
2023/05/22 11:25:19;;;;;;;12.95;4.70;;;;;;;25.36;36.42;100285.16;125558;1098;103289;-78
2023/05/22 11:27:56;;;;;;;9.93;4.50;;;;;;;25.45;36.11;100286.71;125016;1099;104252;-77
2023/05/22 11:30:32;;;;;;;11.77;4.87;;;;;;;25.44;35.59;100291.18;125288;1099;104264;-79
2023/05/22 11:33:07;;;;;;;8.07;4.07;;;;;;;25.34;35.69;100295.08;125426;1099;104191;-81
2023/05/22 11:35:44;;;;;;;11.20;5.10;;;;;;;25.28;35.54;100285.38;125309;1099;104166;-82
2023/05/22 11:38:17;;;;;;;9.87;4.77;;;;;;;25.33;36.18;100287.94;125362;1099;104236;-77
2023/05/22 11:40:52;;;;;;;10.50;4.60;;;;;;;25.57;35.87;100282.77;124814;1099;102657;-81
2023/05/22 11:43:35;;;;;;;13.70;5.20;;;;;;;25.92;36.09;100286.20;125497;1099;102351;-74
2023/05/22 11:46:08;;;;;;;8.37;4.37;;;;;;;26.12;36.33;100278.41;125179;1099;104242;-75
2023/05/22 11:48:47;;;;;;;6.90;4.30;;;;;;;26.26;36.62;100274.40;125038;1099;104699;-80
2023/05/22 11:51:21;;;;;;;9.90;4.77;;;;;;;26.19;36.52;100271.01;124617;1099;104216;-79
2023/05/22 11:53:54;;;;;;;7.77;4.50;;;;;;;25.99;38.38;100269.86;124941;1099;104236;-74
2023/05/22 11:56:22;;;;;;;10.30;5.00;;;;;;;25.82;38.46;100278.42;124991;1099;104252;-80
2023/05/22 11:58:52;;;;;;;8.63;4.40;;;;;;;25.69;38.54;100279.70;124828;1099;104236;-77
2023/05/22 12:01:22;;;;;;;5.73;4.10;;;;;;;25.55;38.56;100281.94;125255;1099;102454;-77